Time;durP1;ratioP1;P1;durP2;ratioP2;P2;SDS_P1;SDS_P2;PMS_P1;PMS_P2;Temp;Humidity;BMP_temperature;BMP_pressure;BME280_temperature;BME280_humidity;BME280_pressure;Samples;Min_cycle;Max_cycle;Signal;HPM_P1;HPM_P2
2023/12/28 00:01:08;;;;;;;5.32;3.58;;;;;;;;;;5044201;28;20696;-65
2023/12/28 00:03:34;;;;;;;5.60;4.10;;;;;;;;;;5050622;28;20423;-64
2023/12/28 00:05:59;;;;;;;5.45;3.75;;;;;;;;;;5053318;28;20091;-65
2023/12/28 00:08:24;;;;;;;8.32;4.05;;;;;;;;;;5051222;28;20094;-63
2023/12/28 00:10:50;;;;;;;4.70;3.40;;;;;;;;;;5052682;28;20656;-66
2023/12/28 00:13:16;;;;;;;6.50;3.63;;;;;;;;;;5051710;28;20683;-65
2023/12/28 00:15:41;;;;;;;5.78;3.28;;;;;;;;;;5037950;28;20099;-66
2023/12/28 00:18:06;;;;;;;5.07;3.90;;;;;;;;;;5043442;28;20044;-67
2023/12/28 00:20:32;;;;;;;5.75;3.45;;;;;;;;;;5052804;28;20048;-66
2023/12/28 00:22:58;;;;;;;6.00;3.88;;;;;;;;;;5048836;28;20049;-65
2023/12/28 00:25:23;;;;;;;3.60;3.00;;;;;;;;;;5051269;28;20493;-65
2023/12/28 00:27:49;;;;;;;13.65;4.20;;;;;;;;;;5047958;28;20052;-66
2023/12/28 00:30:16;;;;;;;7.82;3.88;;;;;;;;;;5037200;28;20060;-66
2023/12/28 00:32:44;;;;;;;7.00;3.78;;;;;;;;;;5045847;28;20040;-64
2023/12/28 00:35:10;;;;;;;7.55;3.38;;;;;;;;;;5050256;28;20063;-64
2023/12/28 00:37:35;;;;;;;4.63;3.65;;;;;;;;;;5053830;28;20053;-66
2023/12/28 00:40:01;;;;;;;4.65;3.15;;;;;;;;;;5053248;28;20057;-64
2023/12/28 00:42:26;;;;;;;4.75;3.53;;;;;;;;;;5051447;28;20057;-65
2023/12/28 00:44:52;;;;;;;5.75;3.45;;;;;;;;;;5052801;28;20048;-67
2023/12/28 00:47:18;;;;;;;4.07;3.15;;;;;;;;;;5049746;28;20045;-67
2023/12/28 00:49:43;;;;;;;2.78;2.53;;;;;;;;;;5049893;28;20080;-65
2023/12/28 00:52:09;;;;;;;3.50;2.65;;;;;;;;;;5037171;28;20103;-66
2023/12/28 00:54:39;;;;;;;3.42;2.50;;;;;;;;;;5036448;28;20045;-65
2023/12/28 00:57:04;;;;;;;3.45;2.50;;;;;;;;;;5036981;28;21009;-64
2023/12/28 00:59:30;;;;;;;3.78;2.80;;;;;;;;;;5019729;28;20060;-67
2023/12/28 01:01:56;;;;;;;4.13;3.15;;;;;;;;;;5022719;28;20538;-66
2023/12/28 01:04:23;;;;;;;3.15;2.60;;;;;;;;;;5017977;28;20041;-67
2023/12/28 01:06:49;;;;;;;5.18;2.92;;;;;;;;;;5017577;28;20060;-67
2023/12/28 01:09:15;;;;;;;4.32;3.05;;;;;;;;;;5021136;28;20080;-65
2023/12/28 01:11:42;;;;;;;4.85;2.90;;;;;;;;;;5022153;28;20049;-65
2023/12/28 01:14:07;;;;;;;7.57;3.47;;;;;;;;;;5018265;28;20107;-67
2023/12/28 01:16:33;;;;;;;5.30;3.45;;;;;;;;;;5001120;28;20045;-66
2023/12/28 01:18:59;;;;;;;4.93;3.00;;;;;;;;;;5037298;28;20683;-67
2023/12/28 01:21:24;;;;;;;6.97;3.55;;;;;;;;;;5029915;28;20053;-65
2023/12/28 01:23:51;;;;;;;3.00;2.42;;;;;;;;;;5035966;28;20140;-66
2023/12/28 01:26:19;;;;;;;5.85;2.80;;;;;;;;;;5032829;28;20602;-67
2023/12/28 01:28:45;;;;;;;4.07;2.63;;;;;;;;;;5034825;28;20059;-63
2023/12/28 01:31:10;;;;;;;7.03;3.45;;;;;;;;;;5036929;28;20048;-66
2023/12/28 01:33:36;;;;;;;3.97;2.90;;;;;;;;;;5035698;28;20045;-67
2023/12/28 01:36:17;;;;;;;4.38;3.05;;;;;;;;;;5035487;28;20044;-65
2023/12/28 01:38:43;;;;;;;3.85;2.63;;;;;;;;;;5034526;28;20107;-66
2023/12/28 01:41:09;;;;;;;3.15;2.50;;;;;;;;;;5035983;28;20045;-65
2023/12/28 01:43:35;;;;;;;3.63;2.13;;;;;;;;;;5035603;28;20048;-64
2023/12/28 01:46:02;;;;;;;3.05;2.60;;;;;;;;;;5035089;28;20041;-66
2023/12/28 01:48:28;;;;;;;3.42;2.55;;;;;;;;;;5033841;28;20056;-66
2023/12/28 01:50:56;;;;;;;2.83;2.33;;;;;;;;;;5035372;28;20052;-66
2023/12/28 01:53:23;;;;;;;4.82;2.67;;;;;;;;;;5036633;28;20045;-64
2023/12/28 01:55:48;;;;;;;2.40;2.20;;;;;;;;;;5035656;28;20782;-65
2023/12/28 01:58:14;;;;;;;3.05;2.28;;;;;;;;;;5034691;28;20041;-65
2023/12/28 02:00:40;;;;;;;2.67;2.13;;;;;;;;;;5034043;28;20048;-67
2023/12/28 02:03:07;;;;;;;3.28;2.40;;;;;;;;;;5037131;28;20411;-66
2023/12/28 02:05:33;;;;;;;3.28;2.65;;;;;;;;;;5033912;28;20088;-65
2023/12/28 02:07:59;;;;;;;3.13;2.00;;;;;;;;;;5034761;28;20045;-67
2023/12/28 02:10:24;;;;;;;2.85;2.03;;;;;;;;;;5033800;28;20086;-64
2023/12/28 02:12:53;;;;;;;2.45;1.95;;;;;;;;;;5036406;28;20381;-66
2023/12/28 02:15:19;;;;;;;2.75;2.25;;;;;;;;;;5034310;28;20073;-66
2023/12/28 02:17:55;;;;;;;5.10;2.40;;;;;;;;;;5037284;28;20049;-67
2023/12/28 02:20:21;;;;;;;3.30;2.00;;;;;;;;;;5037821;28;20158;-64
2023/12/28 02:22:46;;;;;;;2.15;1.90;;;;;;;;;;5039231;28;20085;-68
2023/12/28 02:25:12;;;;;;;3.33;2.30;;;;;;;;;;5037752;28;20592;-66
2023/12/28 02:27:42;;;;;;;3.85;2.50;;;;;;;;;;5038387;28;20048;-65
2023/12/28 02:30:09;;;;;;;6.68;3.58;;;;;;;;;;5040531;28;20083;-65
2023/12/28 02:32:37;;;;;;;5.75;3.28;;;;;;;;;;5038919;28;20049;-67
2023/12/28 02:35:15;;;;;;;5.05;3.25;;;;;;;;;;5039709;28;20044;-64
2023/12/28 02:37:44;;;;;;;3.58;2.92;;;;;;;;;;5040283;28;20037;-64
2023/12/28 02:40:11;;;;;;;5.07;2.50;;;;;;;;;;5039923;28;20041;-65
2023/12/28 02:42:37;;;;;;;7.57;2.85;;;;;;;;;;5038362;28;20044;-66
2023/12/28 02:45:03;;;;;;;4.45;3.00;;;;;;;;;;5037733;28;20548;-63
2023/12/28 02:47:28;;;;;;;4.93;3.08;;;;;;;;;;5037275;28;20056;-65
2023/12/28 02:49:54;;;;;;;11.27;3.25;;;;;;;;;;5039952;28;20033;-64
2023/12/28 02:52:19;;;;;;;5.90;3.13;;;;;;;;;;5039132;28;20044;-63
2023/12/28 02:54:44;;;;;;;6.28;3.65;;;;;;;;;;5036632;28;20555;-64
2023/12/28 02:57:10;;;;;;;5.65;2.88;;;;;;;;;;5039556;28;20041;-62
2023/12/28 02:59:35;;;;;;;3.30;2.85;;;;;;;;;;5039333;28;20374;-65
2023/12/28 03:02:00;;;;;;;5.03;3.28;;;;;;;;;;5038013;28;20033;-63
2023/12/28 03:04:26;;;;;;;3.03;2.00;;;;;;;;;;5037031;28;20460;-64
2023/12/28 03:06:51;;;;;;;3.30;2.30;;;;;;;;;;5038294;28;20048;-63
2023/12/28 03:09:17;;;;;;;4.80;2.47;;;;;;;;;;5037566;28;20036;-63
2023/12/28 03:11:42;;;;;;;5.20;2.60;;;;;;;;;;5054999;28;20060;-66
2023/12/28 03:14:08;;;;;;;3.60;2.28;;;;;;;;;;5038313;28;20059;-66
2023/12/28 03:16:34;;;;;;;5.80;2.50;;;;;;;;;;5037388;28;20080;-66
2023/12/28 03:19:00;;;;;;;3.00;2.25;;;;;;;;;;5038065;28;20057;-62
2023/12/28 03:21:25;;;;;;;4.43;2.50;;;;;;;;;;5038491;28;20130;-66
2023/12/28 03:23:51;;;;;;;5.57;2.65;;;;;;;;;;5038482;28;20029;-66
2023/12/28 03:26:16;;;;;;;2.20;2.00;;;;;;;;;;5037019;28;20098;-64
2023/12/28 03:28:41;;;;;;;3.70;2.47;;;;;;;;;;5051696;28;20044;-63
2023/12/28 03:31:07;;;;;;;3.00;2.10;;;;;;;;;;5038047;28;20060;-66
2023/12/28 03:33:33;;;;;;;2.78;1.80;;;;;;;;;;5036912;28;20043;-65
2023/12/28 03:35:59;;;;;;;3.35;2.28;;;;;;;;;;5038889;28;20045;-66
2023/12/28 03:38:24;;;;;;;7.80;2.45;;;;;;;;;;5036165;28;20095;-65
2023/12/28 03:40:50;;;;;;;3.03;2.38;;;;;;;;;;5038635;28;20064;-65
2023/12/28 03:43:15;;;;;;;6.97;2.60;;;;;;;;;;5029028;28;20636;-62
2023/12/28 03:45:40;;;;;;;4.30;2.20;;;;;;;;;;5010418;28;20141;-64
2023/12/28 03:48:06;;;;;;;2.88;2.40;;;;;;;;;;5025873;28;20048;-66
2023/12/28 03:50:31;;;;;;;6.03;2.00;;;;;;;;;;5026285;28;20267;-64
2023/12/28 03:52:58;;;;;;;3.35;2.17;;;;;;;;;;5017464;28;20053;-63
2023/12/28 03:55:24;;;;;;;2.63;2.08;;;;;;;;;;5025776;28;20049;-65
2023/12/28 03:57:51;;;;;;;2.78;2.30;;;;;;;;;;5026952;28;20056;-63
2023/12/28 04:00:16;;;;;;;2.92;2.15;;;;;;;;;;5035966;28;20041;-64
2023/12/28 04:02:42;;;;;;;3.80;2.70;;;;;;;;;;5033176;28;20049;-66
2023/12/28 04:05:07;;;;;;;5.15;2.20;;;;;;;;;;5037403;28;20314;-65
2023/12/28 04:07:33;;;;;;;2.90;2.03;;;;;;;;;;5036787;28;20131;-67
2023/12/28 04:09:58;;;;;;;3.97;2.30;;;;;;;;;;5037680;28;20330;-65
2023/12/28 04:12:24;;;;;;;4.07;2.58;;;;;;;;;;5035443;28;20072;-64
2023/12/28 04:14:49;;;;;;;2.40;2.15;;;;;;;;;;5036026;28;20072;-63
2023/12/28 04:17:15;;;;;;;3.28;2.20;;;;;;;;;;5038343;28;20976;-66
2023/12/28 04:19:40;;;;;;;5.90;2.13;;;;;;;;;;5036295;28;20081;-63
2023/12/28 04:22:05;;;;;;;3.38;2.15;;;;;;;;;;5037073;28;20106;-67
2023/12/28 04:24:31;;;;;;;2.47;2.03;;;;;;;;;;5035616;28;20037;-64
2023/12/28 04:26:56;;;;;;;3.85;1.90;;;;;;;;;;5036285;28;20123;-66
2023/12/28 04:29:22;;;;;;;2.78;2.50;;;;;;;;;;5036266;28;21044;-65
2023/12/28 04:31:47;;;;;;;5.18;2.70;;;;;;;;;;5037185;28;20037;-67
2023/12/28 04:34:13;;;;;;;2.83;2.30;;;;;;;;;;5035352;28;20040;-67
2023/12/28 04:36:45;;;;;;;4.90;1.70;;;;;;;;;;5035446;28;20051;-67
2023/12/28 04:39:10;;;;;;;6.18;2.10;;;;;;;;;;5036888;28;20049;-67
2023/12/28 04:41:36;;;;;;;2.20;1.70;;;;;;;;;;5035681;28;20049;-66
2023/12/28 04:44:01;;;;;;;4.00;2.13;;;;;;;;;;5035643;28;20132;-65
2023/12/28 04:46:27;;;;;;;2.50;1.88;;;;;;;;;;5034126;28;20043;-66
2023/12/28 04:48:52;;;;;;;2.72;1.60;;;;;;;;;;5037058;28;20049;-65
2023/12/28 04:51:18;;;;;;;3.05;1.67;;;;;;;;;;5038125;28;20045;-65
2023/12/28 04:53:43;;;;;;;1.75;1.48;;;;;;;;;;5040239;28;20386;-67
2023/12/28 04:56:09;;;;;;;1.70;1.60;;;;;;;;;;5020829;28;20053;-65
2023/12/28 04:58:34;;;;;;;2.40;1.55;;;;;;;;;;5033227;28;20080;-64
2023/12/28 05:01:01;;;;;;;2.05;1.50;;;;;;;;;;5002773;28;20084;-65
2023/12/28 05:03:27;;;;;;;2.22;1.70;;;;;;;;;;5018089;28;20081;-65
2023/12/28 05:05:52;;;;;;;1.83;1.48;;;;;;;;;;5018978;28;20134;-66
2023/12/28 05:08:17;;;;;;;1.95;1.50;;;;;;;;;;5019442;28;20933;-64
2023/12/28 05:10:43;;;;;;;2.10;1.48;;;;;;;;;;5016610;28;20119;-64
2023/12/28 05:13:09;;;;;;;1.50;1.40;;;;;;;;;;5019207;28;20460;-65
2023/12/28 05:15:34;;;;;;;1.85;1.60;;;;;;;;;;5017736;28;20079;-64
2023/12/28 05:18:00;;;;;;;2.10;1.42;;;;;;;;;;5018285;28;20420;-66
2023/12/28 05:20:25;;;;;;;2.55;1.60;;;;;;;;;;5027124;28;20045;-64
2023/12/28 05:22:51;;;;;;;2.70;1.48;;;;;;;;;;5017711;28;20123;-63
2023/12/28 05:25:16;;;;;;;2.50;1.50;;;;;;;;;;5025269;28;20049;-65
2023/12/28 05:27:42;;;;;;;1.73;1.50;;;;;;;;;;5023838;28;20045;-64
2023/12/28 05:30:08;;;;;;;2.05;1.55;;;;;;;;;;5021828;28;20044;-64
2023/12/28 05:32:35;;;;;;;1.67;1.58;;;;;;;;;;5018039;28;20458;-66
2023/12/28 05:35:00;;;;;;;1.50;1.40;;;;;;;;;;5017755;28;20168;-63
2023/12/28 05:37:25;;;;;;;3.13;1.65;;;;;;;;;;5017691;28;20080;-66
2023/12/28 05:39:51;;;;;;;1.70;1.60;;;;;;;;;;5018314;28;20547;-64
2023/12/28 05:42:17;;;;;;;4.30;1.88;;;;;;;;;;5024532;28;20499;-64
2023/12/28 05:44:42;;;;;;;1.60;1.42;;;;;;;;;;5016907;28;20515;-64
2023/12/28 05:47:07;;;;;;;2.35;1.60;;;;;;;;;;5024164;28;20071;-65
2023/12/28 05:49:33;;;;;;;3.78;1.65;;;;;;;;;;5025305;28;20500;-65
2023/12/28 05:51:58;;;;;;;1.85;1.50;;;;;;;;;;5029199;28;20044;-65
2023/12/28 05:54:24;;;;;;;1.58;1.48;;;;;;;;;;5023950;28;20037;-65
2023/12/28 05:56:49;;;;;;;3.28;1.33;;;;;;;;;;5020493;28;20754;-63
2023/12/28 05:59:15;;;;;;;2.15;1.52;;;;;;;;;;5021294;28;20488;-65
2023/12/28 06:01:44;;;;;;;2.72;1.30;;;;;;;;;;5020027;28;20052;-65
2023/12/28 06:04:09;;;;;;;1.63;1.52;;;;;;;;;;5021917;28;20166;-64
2023/12/28 06:06:36;;;;;;;2.90;1.60;;;;;;;;;;5022971;28;20563;-67
2023/12/28 06:09:03;;;;;;;1.55;1.45;;;;;;;;;;5056023;28;20053;-66
2023/12/28 06:11:28;;;;;;;2.47;1.55;;;;;;;;;;5023578;28;20823;-63
2023/12/28 06:13:54;;;;;;;1.83;1.48;;;;;;;;;;5033373;28;20051;-66
2023/12/28 06:16:19;;;;;;;1.60;1.50;;;;;;;;;;5041655;28;20040;-66
2023/12/28 06:18:45;;;;;;;1.90;1.65;;;;;;;;;;5040154;28;20045;-66
2023/12/28 06:21:10;;;;;;;1.60;1.50;;;;;;;;;;5039036;28;20803;-65
2023/12/28 06:23:35;;;;;;;1.77;1.50;;;;;;;;;;5038376;28;20144;-66
2023/12/28 06:26:07;;;;;;;3.03;1.90;;;;;;;;;;5040378;28;20116;-66
2023/12/28 06:28:33;;;;;;;2.75;1.80;;;;;;;;;;5047085;28;20041;-64
2023/12/28 06:31:00;;;;;;;11.60;1.85;;;;;;;;;;5041035;28;20523;-66
2023/12/28 06:33:29;;;;;;;3.55;1.65;;;;;;;;;;5050072;28;20405;-63
2023/12/28 06:35:55;;;;;;;2.65;1.40;;;;;;;;;;5045647;28;20064;-65
2023/12/28 06:38:20;;;;;;;2.40;1.25;;;;;;;;;;5045443;28;20550;-63
2023/12/28 06:40:46;;;;;;;2.88;1.55;;;;;;;;;;5044456;28;20049;-67
2023/12/28 06:43:11;;;;;;;3.03;1.48;;;;;;;;;;5039828;28;20049;-64
2023/12/28 06:45:36;;;;;;;2.35;1.35;;;;;;;;;;5039955;28;20072;-64
2023/12/28 06:48:02;;;;;;;1.70;1.27;;;;;;;;;;5042128;28;20040;-64
2023/12/28 06:50:27;;;;;;;1.67;1.38;;;;;;;;;;5042094;28;20036;-64
2023/12/28 06:52:52;;;;;;;1.55;1.40;;;;;;;;;;5040934;28;20157;-66
2023/12/28 06:55:18;;;;;;;2.42;1.65;;;;;;;;;;5041505;28;20051;-63
2023/12/28 06:57:43;;;;;;;2.45;1.50;;;;;;;;;;5041373;28;20041;-64
2023/12/28 07:00:09;;;;;;;2.80;1.23;;;;;;;;;;5042355;28;20983;-64
2023/12/28 07:02:35;;;;;;;2.45;1.60;;;;;;;;;;5038798;28;20132;-67
2023/12/28 07:05:00;;;;;;;1.92;1.42;;;;;;;;;;5044393;28;20189;-63
2023/12/28 07:07:25;;;;;;;2.67;1.50;;;;;;;;;;5050179;28;20076;-66
2023/12/28 07:09:51;;;;;;;1.73;1.40;;;;;;;;;;5040864;28;20037;-63
2023/12/28 07:12:16;;;;;;;2.15;1.17;;;;;;;;;;5047745;28;20052;-67
2023/12/28 07:14:42;;;;;;;1.63;1.42;;;;;;;;;;5040395;28;20407;-64
2023/12/28 07:17:07;;;;;;;1.40;1.15;;;;;;;;;;5041785;28;20049;-67
2023/12/28 07:19:32;;;;;;;1.45;1.27;;;;;;;;;;5039035;28;20057;-64
2023/12/28 07:21:58;;;;;;;1.17;1.08;;;;;;;;;;5039267;28;20048;-67
2023/12/28 07:24:23;;;;;;;1.10;1.10;;;;;;;;;;5038495;28;20068;-65
2023/12/28 07:26:50;;;;;;;1.88;1.50;;;;;;;;;;5039021;28;20067;-67
2023/12/28 07:29:15;;;;;;;2.45;1.38;;;;;;;;;;5057972;28;20136;-67
2023/12/28 07:31:40;;;;;;;1.88;1.48;;;;;;;;;;5058447;28;20040;-66
2023/12/28 07:34:06;;;;;;;4.22;1.42;;;;;;;;;;5059279;28;20591;-66
2023/12/28 07:36:31;;;;;;;2.03;1.55;;;;;;;;;;5059074;28;20041;-67
2023/12/28 07:38:57;;;;;;;3.78;2.13;;;;;;;;;;5021471;28;20452;-65
2023/12/28 07:41:22;;;;;;;4.22;2.00;;;;;;;;;;5039182;28;20102;-67
2023/12/28 07:43:49;;;;;;;3.22;2.20;;;;;;;;;;5039257;28;20481;-66
2023/12/28 07:46:14;;;;;;;3.25;2.50;;;;;;;;;;5038875;28;20098;-67
2023/12/28 07:48:40;;;;;;;3.08;2.22;;;;;;;;;;5038526;28;20041;-66
2023/12/28 07:51:06;;;;;;;4.45;2.70;;;;;;;;;;5039215;28;20106;-67
2023/12/28 07:53:31;;;;;;;5.63;2.60;;;;;;;;;;5038208;28;20052;-67
2023/12/28 07:55:56;;;;;;;4.13;2.10;;;;;;;;;;5053616;28;20590;-67
2023/12/28 07:58:22;;;;;;;2.70;2.22;;;;;;;;;;5039115;28;20041;-68
2023/12/28 08:00:47;;;;;;;3.70;2.25;;;;;;;;;;5037684;28;20045;-64
2023/12/28 08:03:15;;;;;;;1.88;1.50;;;;;;;;;;5037668;28;20059;-67
2023/12/28 08:05:41;;;;;;;2.33;2.00;;;;;;;;;;5032418;28;20227;-65
2023/12/28 08:08:06;;;;;;;4.93;2.15;;;;;;;;;;5037478;28;20143;-66
2023/12/28 08:10:32;;;;;;;2.53;1.95;;;;;;;;;;5035760;28;20103;-66
2023/12/28 08:12:57;;;;;;;2.80;2.22;;;;;;;;;;5034884;28;20095;-67
2023/12/28 08:15:22;;;;;;;3.40;1.98;;;;;;;;;;5033603;28;20415;-66
2023/12/28 08:17:48;;;;;;;3.50;1.95;;;;;;;;;;5035590;28;20041;-64
2023/12/28 08:20:13;;;;;;;2.35;1.63;;;;;;;;;;5035827;28;20114;-65
2023/12/28 08:22:38;;;;;;;5.60;1.67;;;;;;;;;;5034876;28;20072;-65
2023/12/28 08:25:04;;;;;;;3.45;1.90;;;;;;;;;;5036082;28;20124;-67
2023/12/28 08:27:30;;;;;;;2.08;1.83;;;;;;;;;;5035343;28;20514;-65
2023/12/28 08:29:55;;;;;;;3.15;1.60;;;;;;;;;;5035701;28;20032;-67
2023/12/28 08:32:20;;;;;;;3.15;1.60;;;;;;;;;;5036573;28;20383;-67
2023/12/28 08:34:47;;;;;;;2.05;1.80;;;;;;;;;;5030379;28;20087;-65
2023/12/28 08:37:13;;;;;;;1.42;1.33;;;;;;;;;;5034511;28;20071;-67
2023/12/28 08:39:39;;;;;;;2.20;1.50;;;;;;;;;;5035346;28;20045;-67
2023/12/28 08:42:05;;;;;;;1.60;1.50;;;;;;;;;;5035685;28;20102;-67
2023/12/28 08:44:30;;;;;;;2.28;1.42;;;;;;;;;;5035215;28;20045;-66
2023/12/28 08:46:56;;;;;;;1.75;1.50;;;;;;;;;;5032215;28;20459;-67
2023/12/28 08:49:22;;;;;;;2.63;1.52;;;;;;;;;;5036516;28;20709;-67
2023/12/28 08:51:47;;;;;;;1.77;1.30;;;;;;;;;;5033590;28;20053;-67
2023/12/28 08:54:14;;;;;;;1.90;1.70;;;;;;;;;;5036376;28;20052;-66
2023/12/28 08:56:39;;;;;;;2.17;1.80;;;;;;;;;;5035294;28;20045;-67
2023/12/28 08:59:05;;;;;;;1.70;1.60;;;;;;;;;;5034878;28;20043;-67
2023/12/28 09:01:30;;;;;;;1.40;1.30;;;;;;;;;;5036796;28;20123;-67
2023/12/28 09:03:56;;;;;;;1.45;1.35;;;;;;;;;;5034100;28;20055;-67
2023/12/28 09:06:22;;;;;;;3.83;1.40;;;;;;;;;;5036627;28;20040;-68
2023/12/28 09:08:52;;;;;;;2.38;1.52;;;;;;;;;;5033855;28;20093;-65
2023/12/28 09:11:18;;;;;;;2.05;1.63;;;;;;;;;;5036407;28;20041;-67
2023/12/28 09:13:44;;;;;;;1.85;1.48;;;;;;;;;;5035930;28;20673;-66
2023/12/28 09:16:11;;;;;;;2.25;1.60;;;;;;;;;;5015995;28;20049;-67
2023/12/28 09:18:37;;;;;;;1.77;1.55;;;;;;;;;;5048562;28;20141;-67
2023/12/28 09:21:07;;;;;;;4.32;1.60;;;;;;;;;;5021217;28;20080;-65
2023/12/28 09:23:34;;;;;;;2.25;1.60;;;;;;;;;;5029063;28;20049;-66
2023/12/28 09:26:00;;;;;;;2.17;1.65;;;;;;;;;;5031900;28;20120;-66
2023/12/28 09:28:26;;;;;;;2.80;1.63;;;;;;;;;;5019629;28;20594;-65
2023/12/28 09:30:51;;;;;;;2.40;2.00;;;;;;;;;;5039355;28;20044;-66
2023/12/28 09:33:16;;;;;;;3.28;1.77;;;;;;;;;;5024381;28;20044;-64
2023/12/28 09:35:42;;;;;;;2.65;1.70;;;;;;;;;;5016782;28;20046;-65
2023/12/28 09:38:08;;;;;;;5.53;2.67;;;;;;;;;;5028138;28;20352;-67
2023/12/28 09:40:36;;;;;;;4.95;3.10;;;;;;;;;;5035993;28;20152;-68
2023/12/28 09:43:17;;;;;;;6.25;2.78;;;;;;;;;;5053270;28;20143;-68
2023/12/28 09:45:46;;;;;;;6.90;3.00;;;;;;;;;;5026795;28;20049;-65
2023/12/28 09:48:12;;;;;;;3.38;2.65;;;;;;;;;;5035264;28;20048;-67
2023/12/28 09:50:38;;;;;;;3.10;2.33;;;;;;;;;;5035113;28;20053;-67
2023/12/28 09:53:03;;;;;;;4.90;2.10;;;;;;;;;;5030151;28;20056;-66
2023/12/28 09:55:29;;;;;;;4.15;2.60;;;;;;;;;;5027057;28;20056;-66
2023/12/28 09:57:56;;;;;;;2.72;2.47;;;;;;;;;;5034680;28;20068;-66
2023/12/28 10:00:22;;;;;;;3.90;2.83;;;;;;;;;;5035178;28;20037;-66
2023/12/28 10:02:47;;;;;;;2.60;2.40;;;;;;;;;;5034794;28;20044;-68
2023/12/28 10:05:16;;;;;;;5.50;2.83;;;;;;;;;;5034818;28;20047;-66
2023/12/28 10:07:43;;;;;;;3.60;2.65;;;;;;;;;;5033249;28;20828;-67
2023/12/28 10:10:09;;;;;;;4.63;2.85;;;;;;;;;;5035467;28;20076;-67
2023/12/28 10:12:35;;;;;;;4.00;2.60;;;;;;;;;;5034902;28;20069;-67
2023/12/28 10:15:00;;;;;;;5.05;3.15;;;;;;;;;;5033103;28;20107;-67
2023/12/28 10:17:26;;;;;;;6.38;3.20;;;;;;;;;;5034935;28;20044;-67
2023/12/28 10:19:52;;;;;;;4.63;2.25;;;;;;;;;;5034451;28;20430;-65
2023/12/28 10:22:18;;;;;;;2.78;1.80;;;;;;;;;;5027770;28;20041;-66
2023/12/28 10:24:45;;;;;;;2.55;1.83;;;;;;;;;;5032148;28;20140;-66
2023/12/28 10:27:13;;;;;;;2.05;1.52;;;;;;;;;;5032673;28;20055;-65
2023/12/28 10:29:38;;;;;;;2.17;1.73;;;;;;;;;;5033683;28;20033;-67
2023/12/28 10:32:04;;;;;;;3.28;2.08;;;;;;;;;;5033176;28;20130;-67
2023/12/28 10:34:29;;;;;;;6.90;2.35;;;;;;;;;;5033504;28;20049;-65
2023/12/28 10:36:57;;;;;;;3.05;2.13;;;;;;;;;;5031029;28;20083;-67
2023/12/28 10:39:25;;;;;;;5.18;2.00;;;;;;;;;;5037146;28;20091;-66
2023/12/28 10:41:55;;;;;;;3.28;1.90;;;;;;;;;;5037692;28;20036;-67
2023/12/28 10:44:23;;;;;;;4.00;1.75;;;;;;;;;;5037759;28;20056;-66
2023/12/28 10:46:51;;;;;;;3.83;2.15;;;;;;;;;;5036163;28;20044;-64
2023/12/28 10:49:19;;;;;;;2.75;1.75;;;;;;;;;;5037203;28;20053;-64
2023/12/28 10:51:52;;;;;;;3.28;2.28;;;;;;;;;;5045037;28;20044;-67
2023/12/28 10:54:47;;;;;;;2.35;1.80;;;;;;;;;;5032807;28;20218;-67
2023/12/28 10:57:32;;;;;;;2.95;1.75;;;;;;;;;;5057829;28;20490;-65
2023/12/28 11:00:11;;;;;;;2.33;1.90;;;;;;;;;;5055986;28;20166;-67
2023/12/28 11:02:51;;;;;;;2.67;1.63;;;;;;;;;;5057789;28;20052;-68
2023/12/28 11:05:19;;;;;;;1.75;1.65;;;;;;;;;;5058095;28;20163;-67
2023/12/28 11:07:45;;;;;;;2.22;1.80;;;;;;;;;;5056766;28;20059;-66
2023/12/28 11:10:13;;;;;;;3.28;1.60;;;;;;;;;;5058197;28;20036;-65
2023/12/28 11:12:39;;;;;;;2.72;1.55;;;;;;;;;;5060156;28;20139;-66
2023/12/28 11:15:06;;;;;;;2.25;1.77;;;;;;;;;;5059068;28;20040;-68
2023/12/28 11:17:33;;;;;;;2.20;1.67;;;;;;;;;;5059600;28;20046;-67
2023/12/28 11:19:59;;;;;;;2.03;1.60;;;;;;;;;;5059404;28;20071;-67
2023/12/28 11:22:25;;;;;;;2.25;1.65;;;;;;;;;;5059100;28;20064;-65
2023/12/28 11:24:54;;;;;;;5.78;1.42;;;;;;;;;;5058829;28;20044;-65
2023/12/28 11:27:20;;;;;;;1.60;1.50;;;;;;;;;;5059187;28;20044;-66
2023/12/28 11:29:48;;;;;;;1.60;1.30;;;;;;;;;;5059239;28;20052;-66
2023/12/28 11:32:13;;;;;;;5.20;1.58;;;;;;;;;;5058955;28;20075;-67
2023/12/28 11:34:39;;;;;;;2.33;1.50;;;;;;;;;;5058931;28;20132;-65
2023/12/28 11:37:12;;;;;;;1.95;1.40;;;;;;;;;;5058471;28;20499;-67
2023/12/28 11:39:43;;;;;;;2.30;1.42;;;;;;;;;;5059047;28;20052;-67
2023/12/28 11:42:09;;;;;;;1.55;1.10;;;;;;;;;;5058344;28;20041;-67
2023/12/28 11:44:41;;;;;;;2.17;1.38;;;;;;;;;;5058466;28;20060;-65
2023/12/28 11:47:21;;;;;;;1.13;1.10;;;;;;;;;;5037046;28;20075;-67
2023/12/28 11:49:48;;;;;;;1.70;1.42;;;;;;;;;;5036526;28;20037;-67
2023/12/28 11:52:25;;;;;;;2.88;1.38;;;;;;;;;;5038558;28;20037;-65
2023/12/28 11:54:51;;;;;;;4.38;1.25;;;;;;;;;;5036066;28;20068;-66
2023/12/28 11:57:16;;;;;;;1.98;1.45;;;;;;;;;;5038177;28;20079;-65
2023/12/28 11:59:43;;;;;;;3.47;1.52;;;;;;;;;;5038198;28;20088;-68
2023/12/28 12:02:08;;;;;;;1.70;1.40;;;;;;;;;;5037351;28;20638;-66
2023/12/28 12:04:34;;;;;;;1.58;1.45;;;;;;;;;;5036379;28;20054;-67
2023/12/28 12:07:03;;;;;;;2.25;1.52;;;;;;;;;;5032372;28;20067;-65
2023/12/28 12:09:28;;;;;;;3.92;1.50;;;;;;;;;;5037129;28;20037;-67
2023/12/28 12:11:53;;;;;;;1.65;1.33;;;;;;;;;;5036962;28;20044;-66
2023/12/28 12:14:19;;;;;;;2.05;1.63;;;;;;;;;;5037801;28;20072;-67
2023/12/28 12:16:45;;;;;;;1.58;1.42;;;;;;;;;;5036478;28;20045;-67
2023/12/28 12:19:11;;;;;;;1.50;1.38;;;;;;;;;;5037549;28;20137;-67
2023/12/28 12:21:36;;;;;;;3.38;1.50;;;;;;;;;;5037680;28;20044;-66
2023/12/28 12:24:02;;;;;;;3.33;1.92;;;;;;;;;;5036872;28;20458;-67
2023/12/28 12:26:30;;;;;;;2.20;1.75;;;;;;;;;;5037014;28;20059;-68
2023/12/28 12:28:55;;;;;;;3.58;1.83;;;;;;;;;;5036846;28;20480;-66
2023/12/28 12:31:21;;;;;;;2.58;1.70;;;;;;;;;;5038020;28;20559;-64
2023/12/28 12:33:46;;;;;;;2.22;1.60;;;;;;;;;;5037059;28;20078;-66
2023/12/28 12:36:12;;;;;;;1.70;1.60;;;;;;;;;;5037004;28;20049;-66
2023/12/28 12:38:37;;;;;;;4.13;1.55;;;;;;;;;;5036121;28;20053;-65
2023/12/28 12:41:03;;;;;;;2.17;1.60;;;;;;;;;;5050984;28;20386;-66
2023/12/28 12:43:28;;;;;;;2.75;1.75;;;;;;;;;;5021470;28;20470;-65
2023/12/28 12:45:54;;;;;;;2.97;1.55;;;;;;;;;;5020361;28;20416;-64
2023/12/28 12:48:19;;;;;;;2.70;1.80;;;;;;;;;;5031220;28;20818;-65
2023/12/28 12:50:45;;;;;;;3.58;1.80;;;;;;;;;;5022990;28;20237;-68
2023/12/28 12:53:11;;;;;;;3.78;1.48;;;;;;;;;;5023374;28;20049;-67
2023/12/28 12:55:38;;;;;;;2.55;1.80;;;;;;;;;;5037491;28;20044;-65
2023/12/28 12:58:05;;;;;;;2.85;1.67;;;;;;;;;;5036566;28;20051;-64
2023/12/28 13:00:31;;;;;;;2.88;2.03;;;;;;;;;;5036861;28;20054;-66
2023/12/28 13:02:59;;;;;;;4.30;1.73;;;;;;;;;;5020492;28;20056;-64
2023/12/28 13:05:25;;;;;;;2.75;1.65;;;;;;;;;;5020652;28;20033;-65
2023/12/28 13:07:51;;;;;;;3.08;1.80;;;;;;;;;;5033440;28;20143;-67
2023/12/28 13:10:17;;;;;;;2.97;1.90;;;;;;;;;;5033538;28;20044;-65
2023/12/28 13:12:42;;;;;;;2.60;1.63;;;;;;;;;;5042439;28;20047;-65
2023/12/28 13:15:09;;;;;;;1.60;1.50;;;;;;;;;;5039840;28;21011;-65
2023/12/28 13:17:38;;;;;;;3.65;1.67;;;;;;;;;;5043982;28;20051;-67
2023/12/28 13:20:05;;;;;;;2.00;1.50;;;;;;;;;;5040574;28;20048;-65
2023/12/28 13:22:32;;;;;;;2.35;1.40;;;;;;;;;;5039368;28;20044;-65
2023/12/28 13:24:58;;;;;;;2.55;1.67;;;;;;;;;;5040903;28;20052;-65
2023/12/28 13:27:24;;;;;;;2.05;1.77;;;;;;;;;;5044331;28;20051;-67
2023/12/28 13:29:49;;;;;;;2.65;2.00;;;;;;;;;;5047477;28;20040;-66
2023/12/28 13:32:15;;;;;;;2.50;1.88;;;;;;;;;;5045247;28;20977;-66
2023/12/28 13:34:40;;;;;;;3.72;2.22;;;;;;;;;;5044350;28;20465;-64
2023/12/28 13:37:06;;;;;;;2.38;1.80;;;;;;;;;;5041659;28;20049;-66
2023/12/28 13:39:31;;;;;;;2.55;1.70;;;;;;;;;;5046093;28;20045;-66
2023/12/28 13:41:57;;;;;;;2.90;2.00;;;;;;;;;;5048927;28;20052;-66
2023/12/28 13:44:22;;;;;;;2.67;2.00;;;;;;;;;;5040987;28;20090;-66
2023/12/28 13:46:48;;;;;;;1.92;1.60;;;;;;;;;;5049670;28;20673;-66
2023/12/28 13:49:14;;;;;;;1.92;1.80;;;;;;;;;;5045254;28;20040;-64
2023/12/28 13:51:39;;;;;;;3.67;1.75;;;;;;;;;;5047438;28;20052;-67
2023/12/28 13:54:05;;;;;;;2.47;1.85;;;;;;;;;;5042598;28;20040;-65
2023/12/28 13:56:30;;;;;;;2.42;1.95;;;;;;;;;;5049335;28;20044;-66
2023/12/28 13:58:56;;;;;;;3.70;2.25;;;;;;;;;;5054203;28;20040;-65
2023/12/28 14:01:21;;;;;;;7.40;2.00;;;;;;;;;;5055074;28;20186;-66
2023/12/28 14:03:51;;;;;;;5.55;2.30;;;;;;;;;;5055625;28;20101;-67
2023/12/28 14:06:16;;;;;;;3.15;2.28;;;;;;;;;;5053494;28;20040;-66
2023/12/28 14:08:42;;;;;;;4.20;2.58;;;;;;;;;;5055497;28;20445;-64
2023/12/28 14:11:07;;;;;;;2.97;2.05;;;;;;;;;;5055989;28;20052;-65
2023/12/28 14:13:35;;;;;;;3.08;2.20;;;;;;;;;;5058802;28;20040;-66
2023/12/28 14:16:00;;;;;;;3.17;2.45;;;;;;;;;;5059351;28;20047;-67
2023/12/28 14:18:25;;;;;;;5.97;2.45;;;;;;;;;;5059549;28;20756;-65
2023/12/28 14:20:51;;;;;;;3.10;2.42;;;;;;;;;;5060031;28;20082;-68
2023/12/28 14:23:20;;;;;;;6.10;2.60;;;;;;;;;;5060277;28;20864;-66
2023/12/28 14:25:51;;;;;;;4.85;3.13;;;;;;;;;;5059730;28;20491;-66
2023/12/28 14:28:17;;;;;;;3.53;2.70;;;;;;;;;;5059013;28;20049;-66
2023/12/28 14:30:43;;;;;;;7.18;2.95;;;;;;;;;;5059673;28;20046;-65
2023/12/28 14:33:10;;;;;;;4.30;2.95;;;;;;;;;;5060078;28;20044;-66
2023/12/28 14:35:38;;;;;;;6.22;3.25;;;;;;;;;;5060626;28;20106;-67
2023/12/28 14:38:05;;;;;;;4.15;2.92;;;;;;;;;;5060009;28;20048;-67